Time;durP1;ratioP1;P1;durP2;ratioP2;P2;SDS_P1;SDS_P2;PMS_P1;PMS_P2;Temp;Humidity;BMP_temperature;BMP_pressure;BME280_temperature;BME280_humidity;BME280_pressure;Samples;Min_cycle;Max_cycle;Signal;HPM_P1;HPM_P2
2022/05/11 00:00:21;;;;;;;0.68;0.68;;;13.00;99.90;;;;;;5032484;28;20507;-75
2022/05/11 00:02:47;;;;;;;0.35;0.35;;;13.00;99.90;;;;;;5032949;28;20399;-74
2022/05/11 00:05:13;;;;;;;;;;;13.00;99.90;;;;;;5032825;28;20041;-75
2022/05/11 00:07:38;;;;;;;0.32;0.32;;;13.00;99.90;;;;;;5049620;28;20310;-77
2022/05/11 00:10:12;;;;;;;0.30;0.30;;;13.00;99.90;;;;;;5039052;28;20041;-75
2022/05/11 00:12:46;;;;;;;0.52;0.52;;;13.10;99.90;;;;;;5053557;28;20072;-75
2022/05/11 00:15:14;;;;;;;1.23;1.23;;;13.10;99.90;;;;;;5035431;28;20066;-74
2022/05/11 00:17:40;;;;;;;0.32;0.32;;;13.10;99.90;;;;;;5051770;28;20063;-74
2022/05/11 00:20:07;;;;;;;0.77;0.77;;;13.10;99.90;;;;;;5036022;28;20049;-77
2022/05/11 00:22:34;;;;;;;0.28;0.28;;;13.10;99.90;;;;;;5062357;28;20080;-75
2022/05/11 00:25:01;;;;;;;0.30;0.30;;;13.10;99.90;;;;;;5052061;28;20045;-76
2022/05/11 00:27:26;;;;;;;0.65;0.65;;;13.10;99.90;;;;;;5043693;28;20186;-73
2022/05/11 00:29:52;;;;;;;0.40;0.40;;;13.10;99.90;;;;;;5049126;28;20045;-75
2022/05/11 00:32:18;;;;;;;0.45;0.45;;;13.20;99.90;;;;;;5059696;28;20095;-73
2022/05/11 00:34:44;;;;;;;0.75;0.75;;;13.20;99.90;;;;;;5069594;28;20084;-75
2022/05/11 00:37:11;;;;;;;1.63;1.52;;;13.20;99.90;;;;;;5049320;28;20041;-73
2022/05/11 00:39:36;;;;;;;;;;;13.20;99.90;;;;;;5027806;28;20048;-75
2022/05/11 00:42:05;;;;;;;0.60;0.60;;;13.20;99.90;;;;;;5042134;28;19929;-74
2022/05/11 00:44:31;;;;;;;1.67;1.58;;;13.20;99.90;;;;;;5048124;28;20037;-74
2022/05/11 00:46:57;;;;;;;;;;;13.30;99.90;;;;;;5027761;28;20115;-73
2022/05/11 00:49:57;;;;;;;0.30;0.30;;;13.30;99.90;;;;;;5036803;28;19925;-75
2022/05/11 00:52:23;;;;;;;0.30;0.30;;;13.20;99.90;;;;;;5039948;28;20046;-75
2022/05/11 00:55:02;;;;;;;0.30;0.30;;;13.20;99.90;;;;;;5054340;28;20049;-75
2022/05/11 00:57:36;;;;;;;0.40;0.40;;;13.20;99.90;;;;;;5051293;28;20051;-74
2022/05/11 01:00:05;;;;;;;0.47;0.47;;;13.20;99.90;;;;;;5049577;28;20071;-74
2022/05/11 01:02:31;;;;;;;3.78;0.47;;;13.20;99.90;;;;;;5053754;28;20041;-74
2022/05/11 01:05:00;;;;;;;0.40;0.40;;;13.20;99.90;;;;;;5041004;28;20158;-76
2022/05/11 01:07:28;;;;;;;0.98;0.98;;;13.20;99.90;;;;;;5050741;28;20052;-74
2022/05/11 01:09:53;;;;;;;0.45;0.45;;;13.20;99.90;;;;;;5028345;28;20136;-74
2022/05/11 01:12:20;;;;;;;0.50;0.50;;;13.20;99.90;;;;;;5005957;28;20143;-75
2022/05/11 01:14:53;;;;;;;0.40;0.40;;;13.20;99.90;;;;;;5027395;28;20053;-74
2022/05/11 01:17:19;;;;;;;0.38;0.38;;;13.20;99.90;;;;;;5043703;28;20060;-75
2022/05/11 01:19:45;;;;;;;;;;;13.20;99.90;;;;;;5055188;28;20056;-75
2022/05/11 01:22:25;;;;;;;2.25;1.30;;;13.20;99.90;;;;;;5048020;28;19921;-76
2022/05/11 01:24:51;;;;;;;0.30;0.30;;;13.20;99.90;;;;;;5054160;28;20038;-74
2022/05/11 01:27:35;;;;;;;0.40;0.40;;;13.20;99.90;;;;;;5047159;28;20048;-76
2022/05/11 01:30:05;;;;;;;0.90;0.90;;;13.20;99.90;;;;;;5042972;28;20041;-74
2022/05/11 01:32:31;;;;;;;0.50;0.50;;;13.20;99.90;;;;;;5051169;28;20056;-75
2022/05/11 01:35:11;;;;;;;0.30;0.30;;;13.20;99.90;;;;;;5055447;28;20045;-74
2022/05/11 01:37:42;;;;;;;0.60;0.60;;;13.20;99.90;;;;;;5045944;28;20155;-74
2022/05/11 01:40:09;;;;;;;0.45;0.45;;;13.20;99.90;;;;;;5050523;28;20048;-75
2022/05/11 01:42:34;;;;;;;0.50;0.50;;;13.10;99.90;;;;;;5031364;28;20037;-75
2022/05/11 01:45:00;;;;;;;0.30;0.30;;;13.10;99.90;;;;;;5033083;28;20483;-75
2022/05/11 01:47:26;;;;;;;0.82;0.60;;;13.10;99.90;;;;;;5052507;28;20222;-75
2022/05/11 01:49:51;;;;;;;;;;;13.10;99.90;;;;;;5058092;28;20041;-75
2022/05/11 01:52:17;;;;;;;0.38;0.38;;;13.10;99.90;;;;;;5046445;28;19921;-75
2022/05/11 01:54:43;;;;;;;;;;;13.10;99.90;;;;;;5034142;28;20053;-76
2022/05/11 01:57:09;;;;;;;1.02;0.55;;;13.00;99.90;;;;;;5036118;28;19925;-75
2022/05/11 01:59:34;;;;;;;0.40;0.40;;;13.00;99.90;;;;;;5016621;28;20547;-74
2022/05/11 02:02:00;;;;;;;;;;;13.00;99.90;;;;;;5035137;28;20079;-74
2022/05/11 02:09:56;;;;;;;0.30;0.30;;;13.00;99.90;;;;;;5052789;28;20041;-73
2022/05/11 02:12:21;;;;;;;0.28;0.28;;;13.00;99.90;;;;;;5052680;28;20379;-76
2022/05/11 02:14:47;;;;;;;0.50;0.50;;;13.00;99.90;;;;;;5034245;28;20110;-73
2022/05/11 02:17:13;;;;;;;0.30;0.30;;;13.00;99.90;;;;;;5038514;28;20041;-74
2022/05/11 02:19:38;;;;;;;0.43;0.43;;;13.00;99.90;;;;;;5028418;28;20471;-73
2022/05/11 02:22:05;;;;;;;0.30;0.30;;;13.00;99.90;;;;;;5061888;28;20045;-77
2022/05/11 02:24:30;;;;;;;0.70;0.70;;;13.10;99.90;;;;;;5044095;28;20047;-76
2022/05/11 02:27:01;;;;;;;0.55;0.55;;;13.00;99.90;;;;;;5033483;28;20041;-74
2022/05/11 02:29:27;;;;;;;0.80;0.40;;;13.10;99.90;;;;;;5036004;28;20123;-74
2022/05/11 02:31:52;;;;;;;1.20;1.20;;;13.10;99.90;;;;;;5066187;28;20132;-75
2022/05/11 02:37:02;;;;;;;0.40;0.40;;;13.00;99.90;;;;;;5024113;28;20496;-74
2022/05/11 02:39:28;;;;;;;0.40;0.40;;;13.10;99.90;;;;;;5038621;28;20095;-74
2022/05/11 02:41:54;;;;;;;;;;;13.00;99.90;;;;;;5029757;28;20033;-74
2022/05/11 02:44:20;;;;;;;0.30;0.30;;;13.10;99.90;;;;;;5050300;28;20441;-74
2022/05/11 02:46:46;;;;;;;0.55;0.55;;;13.00;99.90;;;;;;5040284;28;20751;-75
2022/05/11 02:49:11;;;;;;;0.40;0.40;;;13.10;99.90;;;;;;5065541;28;20071;-74
2022/05/11 02:51:37;;;;;;;;;;;13.20;99.90;;;;;;5031902;28;20438;-75
2022/05/11 02:54:03;;;;;;;0.25;0.25;;;13.10;99.90;;;;;;5038361;28;19994;-74
2022/05/11 02:56:28;;;;;;;;;;;13.10;99.90;;;;;;5012319;28;20029;-75
2022/05/11 02:58:54;;;;;;;0.63;0.63;;;13.00;99.90;;;;;;5045323;28;20044;-75
2022/05/11 03:01:19;;;;;;;0.57;0.57;;;13.00;99.90;;;;;;5043705;28;20052;-75
2022/05/11 03:03:45;;;;;;;0.98;0.90;;;13.00;99.90;;;;;;5061025;28;20056;-74
2022/05/11 03:06:11;;;;;;;0.40;0.40;;;13.00;99.90;;;;;;5060628;28;20044;-75
2022/05/11 03:08:38;;;;;;;1.35;1.27;;;13.10;99.90;;;;;;5052448;28;20118;-76
2022/05/11 03:11:05;;;;;;;0.30;0.30;;;13.10;99.90;;;;;;5032612;28;20049;-76
2022/05/11 03:13:31;;;;;;;0.65;0.65;;;13.00;99.90;;;;;;5053062;28;20056;-74
2022/05/11 03:15:57;;;;;;;0.60;0.60;;;13.00;99.90;;;;;;5053755;28;20044;-74
2022/05/11 03:18:23;;;;;;;0.30;0.30;;;13.10;99.90;;;;;;5055572;28;20045;-75
2022/05/11 03:20:49;;;;;;;0.28;0.28;;;13.10;99.90;;;;;;5047535;28;20037;-76
2022/05/11 03:23:15;;;;;;;0.60;0.60;;;13.10;99.90;;;;;;5052205;28;20041;-74
2022/05/11 03:25:40;;;;;;;0.52;0.52;;;13.10;99.90;;;;;;5015356;28;20071;-75
2022/05/11 03:28:06;;;;;;;0.47;0.47;;;13.10;99.90;;;;;;5017899;28;20084;-74
2022/05/11 03:30:32;;;;;;;0.28;0.28;;;13.00;99.90;;;;;;5020698;28;20052;-75
2022/05/11 03:35:43;;;;;;;0.40;0.40;;;13.00;99.90;;;;;;5027708;28;20041;-73
2022/05/11 03:38:09;;;;;;;1.05;1.05;;;13.00;99.90;;;;;;5023694;28;20040;-74
2022/05/11 03:40:35;;;;;;;0.35;0.35;;;13.00;99.90;;;;;;5039929;28;20094;-76
2022/05/11 03:43:03;;;;;;;0.40;0.40;;;13.00;99.90;;;;;;5051721;28;20123;-75
2022/05/11 03:45:29;;;;;;;0.40;0.40;;;13.00;99.90;;;;;;5054451;28;20033;-76
2022/05/11 03:47:55;;;;;;;1.02;0.85;;;13.00;99.90;;;;;;5046678;28;20106;-76
2022/05/11 03:50:22;;;;;;;0.70;0.70;;;13.00;99.90;;;;;;5025345;28;20048;-74
2022/05/11 03:52:53;;;;;;;0.30;0.30;;;13.00;99.90;;;;;;5051496;28;20041;-75
2022/05/11 03:55:20;;;;;;;0.47;0.47;;;13.10;99.90;;;;;;5039767;28;20055;-75
2022/05/11 03:57:46;;;;;;;0.82;0.82;;;13.00;99.90;;;;;;5054952;28;20044;-74
2022/05/11 04:00:21;;;;;;;0.55;0.55;;;13.10;99.90;;;;;;5026446;28;20487;-74
2022/05/11 04:02:48;;;;;;;0.65;0.63;;;13.10;99.90;;;;;;5037507;28;20115;-75
2022/05/11 04:05:14;;;;;;;0.98;0.98;;;13.10;99.90;;;;;;5063958;28;20063;-75
2022/05/11 04:07:42;;;;;;;0.20;0.20;;;13.10;99.90;;;;;;5028736;28;20037;-75
2022/05/11 04:10:10;;;;;;;0.50;0.50;;;13.10;99.90;;;;;;5031731;28;20044;-74
2022/05/11 04:12:36;;;;;;;0.30;0.30;;;13.10;99.90;;;;;;5030806;28;20430;-74
2022/05/11 04:15:02;;;;;;;0.30;0.30;;;13.10;99.90;;;;;;5041490;28;20128;-74
2022/05/11 04:17:28;;;;;;;0.50;0.45;;;13.10;99.90;;;;;;5019711;28;20078;-75
2022/05/11 04:19:54;;;;;;;1.85;1.13;;;13.20;99.90;;;;;;5047753;28;20057;-74
2022/05/11 04:22:20;;;;;;;0.52;0.52;;;13.10;99.90;;;;;;5063548;28;20120;-75
2022/05/11 04:24:46;;;;;;;0.30;0.30;;;13.20;99.90;;;;;;5017451;28;20441;-74
2022/05/11 04:27:13;;;;;;;2.40;0.90;;;13.20;99.90;;;;;;5054375;28;20041;-75
2022/05/11 04:29:39;;;;;;;0.50;0.50;;;13.20;99.90;;;;;;5033065;28;20033;-75
2022/05/11 04:32:06;;;;;;;0.55;0.55;;;13.20;99.90;;;;;;5050078;28;20574;-73
2022/05/11 04:34:32;;;;;;;0.30;0.30;;;13.20;99.90;;;;;;5031915;28;20040;-74
2022/05/11 04:36:57;;;;;;;0.50;0.43;;;13.20;99.90;;;;;;5053457;28;20491;-74
2022/05/11 04:39:23;;;;;;;0.20;0.20;;;13.20;99.90;;;;;;5031467;28;20052;-74
2022/05/11 04:41:49;;;;;;;;;;;13.20;99.90;;;;;;5064969;28;20041;-74
2022/05/11 04:44:14;;;;;;;0.40;0.40;;;13.30;99.90;;;;;;5047815;28;19917;-73
2022/05/11 04:46:40;;;;;;;0.30;0.30;;;13.30;99.90;;;;;;5041523;28;20057;-74
2022/05/11 04:49:21;;;;;;;0.68;0.68;;;13.30;99.90;;;;;;5026871;28;20118;-75
2022/05/11 04:51:49;;;;;;;0.47;0.47;;;13.40;99.90;;;;;;5016985;28;20084;-75
2022/05/11 04:54:16;;;;;;;0.50;0.50;;;13.40;99.90;;;;;;5043200;28;20128;-74
2022/05/11 04:56:44;;;;;;;0.60;0.60;;;13.40;99.90;;;;;;5065334;28;20086;-76
2022/05/11 04:59:12;;;;;;;0.40;0.40;;;13.40;99.90;;;;;;5040386;28;20395;-75
2022/05/11 05:01:38;;;;;;;0.30;0.30;;;13.50;99.90;;;;;;5057818;28;20052;-76
2022/05/11 05:04:04;;;;;;;4.32;0.63;;;13.50;99.90;;;;;;5031668;28;20045;-80
2022/05/11 05:06:32;;;;;;;;;;;13.50;99.90;;;;;;5051409;28;20051;-75
2022/05/11 05:09:00;;;;;;;1.08;0.70;;;13.50;99.90;;;;;;5042037;28;20299;-77
2022/05/11 05:11:26;;;;;;;0.30;0.30;;;13.60;99.90;;;;;;5027961;28;20037;-77
2022/05/11 05:13:51;;;;;;;0.60;0.60;;;13.60;99.90;;;;;;5035101;28;20087;-76
2022/05/11 05:16:17;;;;;;;;;;;13.60;99.90;;;;;;5050539;28;20399;-78
2022/05/11 05:18:43;;;;;;;0.20;0.20;;;13.70;99.90;;;;;;5051798;28;19983;-77
2022/05/11 05:21:08;;;;;;;1.75;0.40;;;13.60;99.90;;;;;;5059438;28;20064;-74
2022/05/11 05:23:35;;;;;;;0.47;0.40;;;13.70;99.90;;;;;;5042908;28;20045;-76
2022/05/11 05:26:02;;;;;;;0.40;0.40;;;13.70;99.90;;;;;;5050357;28;20053;-75
2022/05/11 05:31:16;;;;;;;0.77;0.77;;;13.70;99.90;;;;;;5045940;28;20483;-75
2022/05/11 05:33:43;;;;;;;0.30;0.30;;;13.70;99.90;;;;;;5047453;28;20387;-76
2022/05/11 05:36:10;;;;;;;0.30;0.30;;;13.80;99.90;;;;;;5053327;28;20115;-76
2022/05/11 05:38:38;;;;;;;0.47;0.47;;;13.80;99.90;;;;;;5067420;28;20105;-77
2022/05/11 05:41:06;;;;;;;0.57;0.57;;;13.80;99.90;;;;;;5045173;28;20049;-76
2022/05/11 05:43:31;;;;;;;0.30;0.30;;;13.80;99.90;;;;;;5058545;28;20379;-74
2022/05/11 05:45:57;;;;;;;0.45;0.45;;;13.90;99.90;;;;;;5055316;28;20037;-75
2022/05/11 05:48:24;;;;;;;0.40;0.40;;;13.90;99.90;;;;;;5045367;28;20053;-77
2022/05/11 05:50:50;;;;;;;0.40;0.40;;;14.10;99.90;;;;;;5013924;28;20476;-76
2022/05/11 05:53:19;;;;;;;0.30;0.30;;;14.10;99.90;;;;;;5016446;28;20055;-74
2022/05/11 05:55:49;;;;;;;0.32;0.32;;;14.10;99.90;;;;;;4987015;28;20045;-76
2022/05/11 05:58:16;;;;;;;0.30;0.30;;;14.20;99.90;;;;;;5008542;28;20483;-76
2022/05/11 06:00:43;;;;;;;0.38;0.38;;;14.30;99.90;;;;;;5035666;28;20040;-75
2022/05/11 06:03:20;;;;;;;0.65;0.65;;;14.40;99.90;;;;;;5043126;28;20050;-76
2022/05/11 06:05:46;;;;;;;0.52;0.52;;;14.40;99.90;;;;;;5014621;28;20049;-76
2022/05/11 06:08:15;;;;;;;1.20;0.50;;;14.50;99.90;;;;;;5037224;28;20047;-76
2022/05/11 06:10:42;;;;;;;1.42;1.33;;;14.50;99.90;;;;;;5056803;28;20447;-75
2022/05/11 06:13:08;;;;;;;0.40;0.40;;;14.60;99.90;;;;;;5048390;28;20152;-75
2022/05/11 06:15:35;;;;;;;;;;;14.60;99.90;;;;;;5050272;28;20052;-76
2022/05/11 06:18:02;;;;;;;0.30;0.30;;;14.60;99.90;;;;;;5038193;28;19921;-75
2022/05/11 06:20:28;;;;;;;0.68;0.40;;;14.70;99.90;;;;;;5045706;28;20116;-74
2022/05/11 06:22:53;;;;;;;0.20;0.20;;;14.70;99.90;;;;;;5056599;28;20074;-77
2022/05/11 06:25:23;;;;;;;0.50;0.50;;;14.80;99.90;;;;;;5030754;28;20164;-75
2022/05/11 06:27:49;;;;;;;0.60;0.60;;;14.90;99.90;;;;;;5019506;28;20041;-76
2022/05/11 06:30:15;;;;;;;0.38;0.38;;;15.10;99.90;;;;;;5017067;28;20041;-74
2022/05/11 06:32:41;;;;;;;0.43;0.43;;;15.30;99.90;;;;;;5045702;28;20111;-75
2022/05/11 06:35:07;;;;;;;1.33;1.27;;;15.40;99.90;;;;;;5029432;28;20381;-74
2022/05/11 06:37:33;;;;;;;;;;;15.50;99.90;;;;;;5061400;28;20490;-76
2022/05/11 06:39:59;;;;;;;0.52;0.43;;;15.60;99.90;;;;;;5049717;28;19924;-76
2022/05/11 06:42:25;;;;;;;0.98;0.98;;;15.70;99.90;;;;;;5018233;28;20171;-75
2022/05/11 06:44:50;;;;;;;;;;;15.70;99.90;;;;;;5032536;28;20040;-73
2022/05/11 06:47:18;;;;;;;0.60;0.60;;;15.80;99.90;;;;;;5039795;28;19921;-76
2022/05/11 06:49:43;;;;;;;0.30;0.30;;;15.80;99.90;;;;;;4999085;28;20041;-74
2022/05/11 06:52:10;;;;;;;;;;;15.90;99.90;;;;;;5035792;28;20041;-74
2022/05/11 07:00:06;;;;;;;1.55;0.73;;;15.70;99.90;;;;;;5043215;28;20370;-76
2022/05/11 07:02:34;;;;;;;0.30;0.30;;;15.70;99.90;;;;;;5015637;28;20431;-77
2022/05/11 07:05:01;;;;;;;0.47;0.47;;;15.80;99.90;;;;;;5013893;28;20033;-76
2022/05/11 07:07:27;;;;;;;0.65;0.65;;;15.80;99.90;;;;;;5038112;28;20040;-75
2022/05/11 07:09:52;;;;;;;;;;;15.80;99.90;;;;;;5033207;28;20463;-75
2022/05/11 07:12:18;;;;;;;0.30;0.30;;;15.90;99.90;;;;;;5045876;28;19921;-76
2022/05/11 07:14:54;;;;;;;;;;;15.90;99.90;;;;;;5047748;28;20472;-75
2022/05/11 07:17:25;;;;;;;0.50;0.50;;;16.00;99.90;;;;;;5036586;28;19937;-73
2022/05/11 07:19:50;;;;;;;0.50;0.50;;;16.10;99.90;;;;;;5015330;28;20056;-74
2022/05/11 07:22:16;;;;;;;;;;;16.10;99.90;;;;;;5052793;28;20438;-75
2022/05/11 07:24:44;;;;;;;1.27;0.40;;;16.10;99.90;;;;;;5038786;28;20118;-75
2022/05/11 07:27:11;;;;;;;0.63;0.63;;;16.10;99.90;;;;;;5049071;28;20050;-75
2022/05/11 07:29:37;;;;;;;0.60;0.60;;;16.10;99.90;;;;;;5052624;28;20106;-76
2022/05/11 07:32:02;;;;;;;;;;;16.10;99.90;;;;;;5062104;28;20120;-75
2022/05/11 07:34:28;;;;;;;0.88;0.82;;;16.10;99.90;;;;;;5017374;28;19924;-76
2022/05/11 07:36:54;;;;;;;;;;;16.20;99.90;;;;;;5009272;28;20171;-75
2022/05/11 07:39:23;;;;;;;0.30;0.30;;;16.40;99.90;;;;;;5034101;28;19999;-75
2022/05/11 07:41:50;;;;;;;0.90;0.77;;;16.50;99.90;;;;;;5035537;28;20127;-73
2022/05/11 07:44:16;;;;;;;0.45;0.45;;;16.70;99.90;;;;;;5038161;28;20116;-75
2022/05/11 07:46:42;;;;;;;;;;;16.90;99.90;;;;;;5025315;28;20056;-76
2022/05/11 07:49:09;;;;;;;0.77;0.77;;;17.20;99.90;;;;;;5053675;28;19917;-76
2022/05/11 07:51:36;;;;;;;1.80;0.65;;;17.50;99.90;;;;;;5053823;28;20049;-75
2022/05/11 07:54:05;;;;;;;0.50;0.50;;;17.70;99.90;;;;;;5061416;28;20159;-74
2022/05/11 08:01:59;;;;;;;0.30;0.30;;;17.50;99.90;;;;;;5034697;28;20045;-76
2022/05/11 08:04:24;;;;;;;;;;;17.70;99.90;;;;;;5017528;28;20048;-77
2022/05/11 08:06:50;;;;;;;0.30;0.30;;;17.80;99.90;;;;;;5043289;28;19917;-76
2022/05/11 08:09:16;;;;;;;;;;;17.80;99.90;;;;;;5037262;28;20429;-77
2022/05/11 08:11:42;;;;;;;0.68;0.68;;;17.80;99.90;;;;;;5036586;28;19917;-76
2022/05/11 08:14:08;;;;;;;;;;;17.80;99.90;;;;;;5042506;28;20041;-76
2022/05/11 08:16:34;;;;;;;0.40;0.40;;;17.80;99.90;;;;;;5044102;28;19924;-77
2022/05/11 08:19:01;;;;;;;0.63;0.63;;;17.90;99.90;;;;;;5033538;28;20042;-74
2022/05/11 08:21:27;;;;;;;0.50;0.50;;;18.00;99.90;;;;;;5033002;28;20480;-74
2022/05/11 08:23:53;;;;;;;1.27;1.27;;;18.10;99.90;;;;;;5060490;28;20061;-75
2022/05/11 08:26:19;;;;;;;;;;;18.30;99.90;;;;;;5038430;28;20506;-74
2022/05/11 08:28:44;;;;;;;0.40;0.40;;;18.20;99.90;;;;;;5042584;28;20364;-77
2022/05/11 08:33:54;;;;;;;0.40;0.40;;;18.40;99.90;;;;;;5041607;28;20297;-78
2022/05/11 08:36:22;;;;;;;;;;;18.50;99.90;;;;;;5048323;28;20045;-77
2022/05/11 08:38:50;;;;;;;0.52;0.52;;;18.60;99.90;;;;;;5046752;28;19925;-79
2022/05/11 08:41:41;;;;;;;0.65;0.65;;;18.60;99.90;;;;;;5029125;28;20122;-75
2022/05/11 08:44:20;;;;;;;0.30;0.30;;;18.40;99.90;;;;;;5037822;28;20053;-74
2022/05/11 08:47:07;;;;;;;0.32;0.32;;;18.20;99.90;;;;;;5056622;28;20060;-75
2022/05/11 08:49:52;;;;;;;1.10;1.10;;;18.00;99.90;;;;;;5038144;28;20049;-78
2022/05/11 08:52:51;;;;;;;0.30;0.30;;;17.80;99.90;;;;;;5022768;28;20048;-76
2022/05/11 08:55:41;;;;;;;0.20;0.20;;;17.80;99.90;;;;;;5051703;28;20045;-77
2022/05/11 08:58:16;;;;;;;0.35;0.35;;;17.80;99.90;;;;;;5055960;28;20041;-76
2022/05/11 09:00:44;;;;;;;0.52;0.52;;;17.80;99.90;;;;;;5000711;28;20052;-79
2022/05/11 09:03:32;;;;;;;0.40;0.40;;;17.80;99.90;;;;;;5054114;28;20159;-75
2022/05/11 09:06:16;;;;;;;0.40;0.40;;;17.90;99.90;;;;;;5015790;28;20067;-74
2022/05/11 09:08:42;;;;;;;0.50;0.50;;;18.10;99.90;;;;;;5040313;28;20037;-77
2022/05/11 09:11:13;;;;;;;0.50;0.50;;;18.20;99.90;;;;;;5028909;28;20040;-75
2022/05/11 09:13:42;;;;;;;0.40;0.40;;;18.10;99.90;;;;;;5059876;28;20033;-76
2022/05/11 09:16:22;;;;;;;0.95;0.95;;;18.00;99.90;;;;;;5055280;28;20135;-75
2022/05/11 09:18:48;;;;;;;0.47;0.47;;;18.00;99.90;;;;;;5058573;28;20115;-75
2022/05/11 09:21:21;;;;;;;0.75;0.75;;;17.90;99.90;;;;;;5035444;28;20040;-74
2022/05/11 09:24:27;;;;;;;0.30;0.30;;;17.80;99.90;;;;;;5047936;28;20196;-77
2022/05/11 09:27:09;;;;;;;0.40;0.40;;;17.80;99.90;;;;;;5031586;28;20107;-74
2022/05/11 09:29:44;;;;;;;0.40;0.40;;;18.20;99.90;;;;;;5017814;28;20081;-77
2022/05/11 09:32:31;;;;;;;0.38;0.38;;;18.50;99.90;;;;;;5018728;28;20540;-77
2022/05/11 09:35:33;;;;;;;0.28;0.28;;;18.80;99.90;;;;;;5036825;28;20116;-77
2022/05/11 09:38:07;;;;;;;0.43;0.43;;;19.00;99.90;;;;;;5026483;28;20146;-74
2022/05/11 09:41:05;;;;;;;0.77;0.63;;;19.30;99.90;;;;;;5041676;28;20734;-75
2022/05/11 09:43:35;;;;;;;0.50;0.50;;;19.30;99.90;;;;;;5028139;28;20120;-75
2022/05/11 09:46:19;;;;;;;0.30;0.30;;;19.20;99.90;;;;;;5051340;28;20443;-76
2022/05/11 09:49:10;;;;;;;1.30;1.30;;;19.10;99.90;;;;;;5000849;28;20098;-73
2022/05/11 09:51:43;;;;;;;0.60;0.60;;;18.80;99.90;;;;;;5029382;28;20102;-74
2022/05/11 09:54:20;;;;;;;0.77;0.77;;;18.50;99.90;;;;;;5043276;28;20218;-73
2022/05/11 09:56:49;;;;;;;4.63;1.35;;;18.30;99.90;;;;;;5046137;28;20049;-76
2022/05/11 09:59:37;;;;;;;0.35;0.35;;;18.30;99.90;;;;;;5046130;28;20080;-74
2022/05/11 10:02:22;;;;;;;0.82;0.82;;;18.40;99.90;;;;;;5037268;28;20053;-75
2022/05/11 10:05:01;;;;;;;0.30;0.30;;;18.60;99.90;;;;;;5034369;28;20391;-75
2022/05/11 10:07:30;;;;;;;0.25;0.25;;;18.70;99.90;;;;;;5053297;28;20044;-77
2022/05/11 10:10:09;;;;;;;0.60;0.60;;;18.60;99.90;;;;;;5034104;28;20041;-76
2022/05/11 10:12:38;;;;;;;0.20;0.20;;;18.40;99.90;;;;;;5015936;28;20047;-74
2022/05/11 10:24:13;;;;;;;0.88;0.88;;;18.60;99.90;;;;;;5054496;28;20370;-77
2022/05/11 10:27:07;;;;;;;0.30;0.30;;;18.60;99.90;;;;;;5038772;28;20115;-74
2022/05/11 10:30:22;;;;;;;0.45;0.45;;;19.00;99.90;;;;;;5037711;28;20044;-74
2022/05/11 10:32:59;;;;;;;0.35;0.35;;;19.30;99.90;;;;;;5027141;28;20499;-76
2022/05/11 10:35:51;;;;;;;0.50;0.50;;;19.10;99.90;;;;;;5049500;28;20113;-76
2022/05/11 10:38:41;;;;;;;1.30;0.85;;;18.80;99.90;;;;;;5017653;28;20525;-78
2022/05/11 10:41:15;;;;;;;4.05;1.55;;;18.50;99.90;;;;;;5042130;28;20059;-79
2022/05/11 10:43:44;;;;;;;0.88;0.82;;;18.40;99.90;;;;;;5022046;28;20041;-74
2022/05/11 10:46:22;;;;;;;0.20;0.20;;;18.40;99.90;;;;;;5028052;28;20065;-81
2022/05/11 10:49:15;;;;;;;0.38;0.38;;;18.30;99.90;;;;;;5014957;28;20059;-80
2022/05/11 10:52:31;;;;;;;0.98;0.93;;;18.20;99.90;;;;;;5043972;28;20040;-78
2022/05/11 10:55:16;;;;;;;1.13;1.02;;;18.30;99.90;;;;;;5013617;28;20141;-77
2022/05/11 10:57:57;;;;;;;1.58;1.48;;;18.80;99.90;;;;;;5041221;28;20040;-79
2022/05/11 11:00:24;;;;;;;0.57;0.57;;;18.50;99.90;;;;;;5030782;28;20119;-78
2022/05/11 11:02:56;;;;;;;0.60;0.52;;;18.70;99.90;;;;;;5056590;28;20669;-77
2022/05/11 11:05:31;;;;;;;0.38;0.38;;;19.00;99.90;;;;;;5056836;28;20126;-80
2022/05/11 11:08:23;;;;;;;0.47;0.47;;;19.80;99.90;;;;;;5022484;28;20051;-74
2022/05/11 11:11:16;;;;;;;0.40;0.40;;;20.40;99.90;;;;;;5040402;28;20037;-77
2022/05/11 11:14:01;;;;;;;0.40;0.40;;;20.70;99.90;;;;;;5037808;28;20048;-78
2022/05/11 11:16:33;;;;;;;1.48;1.20;;;20.70;99.90;;;;;;5033349;28;20037;-75
2022/05/11 11:18:59;;;;;;;0.30;0.30;;;20.70;99.90;;;;;;5034468;28;20531;-77
2022/05/11 11:21:26;;;;;;;0.25;0.25;;;20.70;98.30;;;;;;5027402;28;20041;-78
2022/05/11 11:24:22;;;;;;;0.68;0.68;;;20.40;98.20;;;;;;5028860;28;20052;-78
2022/05/11 11:27:03;;;;;;;0.52;0.32;;;20.20;98.30;;;;;;5029070;28;20052;-77
2022/05/11 11:29:59;;;;;;;0.60;0.60;;;20.20;99.50;;;;;;5057320;28;20033;-78
2022/05/11 11:32:25;;;;;;;0.57;0.57;;;20.20;99.00;;;;;;5032767;28;20111;-74
2022/05/11 11:35:12;;;;;;;0.30;0.30;;;20.10;98.70;;;;;;5046898;28;20085;-77
2022/05/11 11:37:41;;;;;;;0.50;0.50;;;19.80;98.90;;;;;;5009906;28;20481;-74
2022/05/11 11:40:13;;;;;;;0.50;0.50;;;19.40;99.90;;;;;;5035603;28;20048;-77
2022/05/11 11:42:46;;;;;;;1.17;1.17;;;19.30;99.90;;;;;;5049218;28;20159;-77
2022/05/11 11:45:27;;;;;;;0.38;0.38;;;19.40;99.90;;;;;;5050405;28;20052;-74
2022/05/11 11:48:15;;;;;;;0.43;0.43;;;19.50;99.90;;;;;;5033629;28;20584;-74
2022/05/11 11:50:58;;;;;;;4.15;0.63;;;19.50;99.90;;;;;;5035499;28;20049;-75
2022/05/11 11:53:47;;;;;;;0.80;0.55;;;19.50;99.90;;;;;;5046395;28;20119;-73
2022/05/11 11:56:35;;;;;;;0.73;0.70;;;19.60;99.90;;;;;;5030416;28;20179;-74
2022/05/11 11:59:10;;;;;;;0.20;0.20;;;19.90;98.90;;;;;;5009394;28;20051;-76
2022/05/11 12:01:43;;;;;;;0.32;0.32;;;20.00;97.50;;;;;;5034679;28;20716;-72
2022/05/11 12:04:34;;;;;;;0.90;0.90;;;19.80;96.90;;;;;;5050065;28;20041;-74
2022/05/11 12:15:39;;;;;;;0.93;0.93;;;20.50;96.20;;;;;;5042803;28;20129;-73
2022/05/11 12:18:26;;;;;;;0.57;0.57;;;20.50;95.70;;;;;;5046875;28;20413;-74
2022/05/11 12:20:54;;;;;;;0.20;0.20;;;20.50;94.30;;;;;;5041409;28;20667;-73
2022/05/11 12:23:28;;;;;;;0.35;0.35;;;20.30;93.70;;;;;;5024390;28;20073;-72
2022/05/11 12:25:58;;;;;;;0.30;0.30;;;20.40;93.70;;;;;;5039535;28;20081;-72
2022/05/11 12:28:27;;;;;;;0.30;0.30;;;20.50;93.80;;;;;;5028142;28;20040;-75
2022/05/11 12:30:54;;;;;;;0.20;0.20;;;20.50;92.40;;;;;;5043267;28;20041;-73
2022/05/11 12:33:28;;;;;;;0.30;0.30;;;20.30;90.90;;;;;;5043953;28;20053;-77
2022/05/11 12:35:55;;;;;;;0.22;0.22;;;20.30;91.40;;;;;;5029270;28;20075;-74
2022/05/11 12:38:31;;;;;;;0.20;0.20;;;20.40;90.30;;;;;;5036813;28;20060;-77
2022/05/11 12:40:58;;;;;;;0.40;0.40;;;20.40;88.00;;;;;;5052171;28;20049;-75
2022/05/11 12:43:31;;;;;;;2.00;1.85;;;20.40;87.70;;;;;;5044831;28;20044;-74
2022/05/11 12:46:04;;;;;;;0.20;0.20;;;20.40;88.40;;;;;;5055004;28;20041;-75
2022/05/11 12:48:34;;;;;;;3.10;1.20;;;20.40;88.00;;;;;;5027817;28;20057;-74
2022/05/11 12:51:04;;;;;;;0.30;0.30;;;20.50;89.80;;;;;;5031805;28;20095;-74
2022/05/11 12:53:36;;;;;;;0.20;0.20;;;20.70;88.90;;;;;;5035264;28;20137;-73
2022/05/11 12:56:39;;;;;;;0.32;0.32;;;20.50;87.90;;;;;;5047116;28;20052;-75
2022/05/11 12:59:24;;;;;;;0.20;0.20;;;21.10;85.80;;;;;;5007681;28;20132;-75
2022/05/11 13:01:50;;;;;;;0.30;0.30;;;21.10;86.60;;;;;;5029408;28;20133;-77
2022/05/11 13:04:27;;;;;;;0.10;0.10;;;21.20;85.30;;;;;;5018513;28;20048;-76
2022/05/11 13:06:59;;;;;;;0.20;0.20;;;21.60;82.50;;;;;;5031904;28;20049;-75
2022/05/11 13:09:43;;;;;;;0.20;0.20;;;22.00;78.90;;;;;;5046100;28;20075;-76
2022/05/11 13:12:12;;;;;;;2.20;1.85;;;22.30;78.30;;;;;;5030941;28;20053;-75
2022/05/11 13:14:45;;;;;;;0.20;0.20;;;22.60;77.40;;;;;;5048557;28;20067;-75
2022/05/11 13:17:24;;;;;;;0.20;0.20;;;22.60;71.90;;;;;;5025291;28;20041;-77
2022/05/11 13:20:25;;;;;;;0.20;0.20;;;22.50;71.50;;;;;;5031989;28;20116;-77
2022/05/11 13:23:00;;;;;;;0.20;0.20;;;22.40;72.10;;;;;;5046602;28;20041;-75
2022/05/11 13:25:52;;;;;;;0.30;0.30;;;22.40;73.30;;;;;;5046341;28;20049;-74
2022/05/11 13:28:31;;;;;;;0.57;0.57;;;22.70;74.30;;;;;;5028877;28;20629;-74
2022/05/11 13:31:00;;;;;;;0.30;0.30;;;22.80;72.60;;;;;;5044976;28;20439;-75
2022/05/11 13:33:40;;;;;;;0.10;0.10;;;22.90;72.40;;;;;;5052627;28;20045;-76
2022/05/11 13:36:12;;;;;;;2.67;0.80;;;22.50;71.40;;;;;;5036718;28;20047;-74
2022/05/11 13:38:51;;;;;;;0.30;0.30;;;22.10;72.10;;;;;;5052069;28;20055;-76
2022/05/11 13:41:28;;;;;;;0.82;0.82;;;21.60;73.70;;;;;;5033607;28;20052;-74
2022/05/11 13:43:58;;;;;;;0.30;0.30;;;21.20;74.50;;;;;;5045535;28;20104;-70
2022/05/11 13:49:34;;;;;;;0.85;0.85;;;21.00;75.50;;;;;;5055521;28;20128;-79
2022/05/11 13:52:05;;;;;;;0.35;0.35;;;20.90;76.60;;;;;;5041199;28;20063;-79
2022/05/11 13:54:31;;;;;;;0.75;0.75;;;20.80;78.10;;;;;;5036592;28;20126;-78
2022/05/11 13:57:08;;;;;;;0.30;0.30;;;20.60;79.00;;;;;;5033367;28;20048;-78
2022/05/11 13:59:44;;;;;;;0.25;0.25;;;20.40;82.30;;;;;;5037882;28;20044;-76
2022/05/11 14:02:11;;;;;;;1.25;1.15;;;20.30;82.20;;;;;;5017876;28;20148;-76